Grantley Adams, Barbados

11:07 PM AST on July 30, 2015 (GMT -0400)
Hopefield Plantation | | Change Station
CLOSE
Current Station
Personal Weather Station
Location: Saint Philip, SAINT PHILIP
Elevation: 236 ft
Nearby Weather Stations

Elev 236 ft 13.09 °N, 59.49 °W | Updated 11 seconds ago

Rain Showers
Showers Rain
79.2 °F
Feels Like 84 °F
N
6.5
Wind Variable Wind from ENE
Gusts 7.4 mph

Today
High -- | Low -- °F
--% Chance of Precip.
Yesterday
High -- | Low -- °F
Precip. -- in
5:42 AM 6:25 PM
Full, 100% visible
Pressure 30.01 in
Visibility 3.1 miles
Clouds Few 1000 ft
Scattered Clouds 1200 ft
Mostly Cloudy 3600 ft
Heat Index 84 °F
Dew Point 79 °F
Humidity 98%
Rainfall in
Snow Depth Not available.
UV 0.0 out of 12
Pollen Not available.
Air Quality Not available.
Flu Activity Not available.
METAR TBPB 310300Z 06017KT 5000 SHRA VCSH FEW010CB SCT012 BKN036 25/25 Q1016 RESH NOSIG

More Conditions Fewer Conditions

Pressure 30.01 in
Visibility 3.1 miles
Clouds Few 1000 ft
Scattered Clouds 1200 ft
Mostly Cloudy 3600 ft
Heat Index 84 °F
Dew Point 79 °F
Humidity 98%
Rainfall in
Snow Depth Not available.
UV 0.0 out of 12
Pollen Not available.
Air Quality Not available.
Flu Activity Not available.
METAR TBPB 310300Z 06017KT 5000 SHRA VCSH FEW010CB SCT012 BKN036 25/25 Q1016 RESH NOSIG

More Conditions Fewer Conditions

10-Day Weather Forecast

×

Almanac

Astronomy

Jul. 30, 2015 Rise Set
Actual Time
Civil Twilight
Nautical Twilight
Astronomical Twilight
Moon
Length of Visible Light
Length of Day
Tomorrow will be .
, % of the Moon is Illuminated

Today's Extremes

Country Highs Country Lows

Community

WunderPhotos

Upload Photos

1,842,594 photos uploaded!

WunderBlogs® & News

Nearby

Air Quality

  Air Quality AQ Index Pollutant
Not available.

Snow Depth

Station Depth Elevation

Earthquake Activity

City Distance Mag. Time & Date
Minimum magnitude displayed is 2.5.

Coastal Water Temperatures

Place Temperature

Stations

Nearby Weather Stations

Station Location Temp. Windchill Dew Point Humidity Wind Precip. Elev Updated Type